createdAt,value
2019-06-26T00:00:48.332Z,12.70
2019-06-26T00:03:18.065Z,13.10
2019-06-26T00:05:47.701Z,11.90
2019-06-26T00:08:17.303Z,12.58
2019-06-26T00:10:46.919Z,12.30
2019-06-26T00:13:25.715Z,12.15
2019-06-26T00:15:47.905Z,12.55
2019-06-26T00:18:17.603Z,12.50
2019-06-26T00:20:47.229Z,10.98
2019-06-26T00:23:16.828Z,12.55
2019-06-26T00:25:46.461Z,12.07
2019-06-26T00:28:16.095Z,11.95
2019-06-26T00:30:45.700Z,12.28
2019-06-26T00:33:15.328Z,12.55
2019-06-26T00:35:44.930Z,12.07
2019-06-26T00:38:14.565Z,12.10
2019-06-26T00:40:44.201Z,12.07
2019-06-26T00:43:13.802Z,13.18
2019-06-26T00:45:43.492Z,13.68
2019-06-26T00:48:13.092Z,14.13
2019-06-26T00:50:42.820Z,15.23
2019-06-26T00:53:12.496Z,14.30
2019-06-26T00:55:42.240Z,14.53
2019-06-26T00:58:11.915Z,13.70
2019-06-26T01:00:53.379Z,13.10
2019-06-26T01:03:22.982Z,12.50
2019-06-26T01:05:52.613Z,12.20
2019-06-26T01:08:22.222Z,12.03
2019-06-26T01:10:51.931Z,11.80
2019-06-26T01:13:21.524Z,12.35
2019-06-26T01:15:51.148Z,10.60
2019-06-26T01:18:20.777Z,10.00
2019-06-26T01:20:50.469Z,11.45
2019-06-26T01:23:20.098Z,12.05
2019-06-26T01:25:49.708Z,11.80
2019-06-26T01:28:19.416Z,12.33
2019-06-26T01:30:49.035Z,10.07
2019-06-26T01:33:18.776Z,10.80
2019-06-26T01:35:48.415Z,14.20
2019-06-26T01:38:18.037Z,15.15
2019-06-26T01:40:47.679Z,11.73
2019-06-26T01:43:17.359Z,11.22
2019-06-26T01:45:46.981Z,11.25
2019-06-26T01:48:16.680Z,10.43
2019-06-26T01:50:46.309Z,10.27
2019-06-26T01:53:15.914Z,11.33
2019-06-26T01:55:45.564Z,11.45
2019-06-26T01:58:15.161Z,12.25
2019-06-26T02:00:44.789Z,13.57
2019-06-26T02:03:14.393Z,11.65
2019-06-26T02:05:44.075Z,11.88
2019-06-26T02:08:13.704Z,12.82
2019-06-26T02:10:44.344Z,11.95
2019-06-26T02:13:14.003Z,11.38
2019-06-26T02:15:43.604Z,11.48
2019-06-26T02:18:30.709Z,12.18
2019-06-26T02:21:00.309Z,11.78
2019-06-26T02:23:30.023Z,11.75
2019-06-26T02:25:59.688Z,12.27
2019-06-26T02:28:29.299Z,12.45
2019-06-26T02:30:59.109Z,13.43
2019-06-26T02:33:28.769Z,12.40
2019-06-26T02:35:58.385Z,11.95
2019-06-26T02:38:28.057Z,12.70
2019-06-26T02:40:57.831Z,11.17
2019-06-26T02:43:27.432Z,11.10
2019-06-26T02:45:57.062Z,11.87
2019-06-26T02:48:26.682Z,12.35
2019-06-26T02:50:56.301Z,15.50
2019-06-26T02:53:26.126Z,15.65
2019-06-26T02:55:55.753Z,14.73
2019-06-26T02:58:25.697Z,16.07
2019-06-26T03:00:55.326Z,16.25
2019-06-26T03:03:25.275Z,16.25
2019-06-26T03:05:54.978Z,16.32
2019-06-26T03:08:24.655Z,14.83
2019-06-26T03:10:54.369Z,14.97
2019-06-26T03:13:24.180Z,13.10
2019-06-26T03:15:54.031Z,11.70
2019-06-26T03:18:23.668Z,11.68
2019-06-26T03:20:57.423Z,16.25
2019-06-26T03:23:27.175Z,15.53
2019-06-26T03:25:56.878Z,17.37
2019-06-26T03:28:26.580Z,15.95
2019-06-26T03:30:56.207Z,16.80
2019-06-26T03:33:25.842Z,12.47
2019-06-26T03:35:55.540Z,13.03
2019-06-26T03:38:25.146Z,12.18
2019-06-26T03:40:54.768Z,11.68
2019-06-26T03:43:24.406Z,10.18
2019-06-26T03:45:54.007Z,10.00
2019-06-26T03:48:23.714Z,11.12
2019-06-26T03:50:53.321Z,11.73
2019-06-26T03:53:22.963Z,12.55
2019-06-26T03:55:52.564Z,11.57
2019-06-26T03:58:22.205Z,14.43
2019-06-26T04:00:51.884Z,16.27
2019-06-26T04:03:21.500Z,15.53
2019-06-26T04:05:51.207Z,16.15
2019-06-26T04:08:20.838Z,13.15
2019-06-26T04:10:50.450Z,13.53
2019-06-26T04:13:20.081Z,13.05
2019-06-26T04:15:51.040Z,11.63
2019-06-26T04:18:21.292Z,11.63
2019-06-26T04:20:50.925Z,12.25
2019-06-26T04:23:20.621Z,12.23
2019-06-26T04:25:50.223Z,13.20
2019-06-26T04:28:19.891Z,13.75
2019-06-26T04:30:49.550Z,14.25
2019-06-26T04:33:19.251Z,14.00
2019-06-26T04:35:48.859Z,13.50
2019-06-26T04:38:18.568Z,13.58
2019-06-26T04:40:48.207Z,14.10
2019-06-26T04:43:17.890Z,15.63
2019-06-26T04:45:57.795Z,15.60
2019-06-26T04:48:19.048Z,15.72
2019-06-26T04:50:48.679Z,15.28
2019-06-26T04:53:18.303Z,14.85
2019-06-26T04:55:47.939Z,14.90
2019-06-26T04:58:17.549Z,13.62
2019-06-26T05:00:47.179Z,13.50
2019-06-26T05:03:16.874Z,13.60
2019-06-26T05:05:46.663Z,12.88
2019-06-26T05:08:16.300Z,13.45
2019-06-26T05:10:45.934Z,13.18
2019-06-26T05:13:15.543Z,13.75
2019-06-26T05:15:45.182Z,13.05
2019-06-26T05:18:14.902Z,13.35
2019-06-26T05:20:44.536Z,13.13
2019-06-26T05:23:14.137Z,12.90
2019-06-26T05:25:44.237Z,12.82
2019-06-26T05:28:13.837Z,13.08
2019-06-26T05:30:43.480Z,13.13
2019-06-26T05:33:13.181Z,12.28
2019-06-26T05:35:42.816Z,12.70
2019-06-26T05:38:13.549Z,12.65
2019-06-26T05:40:43.205Z,13.28
2019-06-26T05:43:12.849Z,11.95
2019-06-26T05:45:42.449Z,13.05
2019-06-26T05:48:12.077Z,13.03
2019-06-26T05:50:41.679Z,13.03
2019-06-26T05:53:11.331Z,12.78
2019-06-26T05:55:41.412Z,13.88
2019-06-26T05:58:11.086Z,13.38
2019-06-26T06:00:40.756Z,12.30
2019-06-26T06:03:10.405Z,12.70
2019-06-26T06:05:40.037Z,12.23
2019-06-26T06:08:09.671Z,13.10
2019-06-26T06:10:39.350Z,11.78
2019-06-26T06:13:09.048Z,12.07
2019-06-26T06:15:38.657Z,12.30
2019-06-26T06:18:08.284Z,12.07
2019-06-26T06:20:41.353Z,12.10
2019-06-26T06:23:10.954Z,13.13
2019-06-26T06:25:40.589Z,11.93
2019-06-26T06:28:10.243Z,11.38
2019-06-26T06:30:39.873Z,12.75
2019-06-26T06:33:09.570Z,12.45
2019-06-26T06:35:39.196Z,11.38
2019-06-26T06:38:08.795Z,11.48
2019-06-26T06:40:38.517Z,11.78
2019-06-26T06:43:08.117Z,11.48
2019-06-26T06:45:37.808Z,12.15
2019-06-26T06:48:07.493Z,12.15
2019-06-26T06:50:37.181Z,12.63
2019-06-26T06:53:06.777Z,12.10
2019-06-26T06:55:36.417Z,12.47
2019-06-26T06:58:06.142Z,11.93
2019-06-26T07:00:35.881Z,10.95
2019-06-26T07:03:06.147Z,12.23
2019-06-26T07:05:35.766Z,11.97
2019-06-26T07:08:05.444Z,12.28
2019-06-26T07:10:35.080Z,11.53
2019-06-26T07:13:04.770Z,12.45
2019-06-26T07:15:34.469Z,11.83
2019-06-26T07:18:04.071Z,11.40
2019-06-26T07:20:33.772Z,11.30
2019-06-26T07:23:03.406Z,12.07
2019-06-26T07:25:33.103Z,11.80
2019-06-26T07:28:02.747Z,10.95
2019-06-26T07:30:32.402Z,11.18
2019-06-26T07:33:02.835Z,11.05
2019-06-26T07:35:32.575Z,11.28
2019-06-26T07:38:02.263Z,11.93
2019-06-26T07:40:31.920Z,10.90
2019-06-26T07:43:01.574Z,11.28
2019-06-26T07:45:31.150Z,11.28
2019-06-26T07:48:00.777Z,11.30
2019-06-26T07:50:32.565Z,10.40
2019-06-26T07:53:01.731Z,10.58
2019-06-26T07:55:31.367Z,11.28
2019-06-26T07:58:00.972Z,10.90
2019-06-26T08:00:31.859Z,11.28
2019-06-26T08:03:04.340Z,10.48
2019-06-26T08:05:32.996Z,10.28
2019-06-26T08:08:02.589Z,9.90
2019-06-26T08:10:32.214Z,10.20
2019-06-26T08:13:01.926Z,8.15
2019-06-26T08:15:31.528Z,7.87
2019-06-26T08:18:01.674Z,7.90
2019-06-26T08:20:31.361Z,7.60
2019-06-26T08:23:00.960Z,7.97
2019-06-26T08:25:30.595Z,9.33
2019-06-26T08:28:00.229Z,8.65
2019-06-26T08:30:29.898Z,8.28
2019-06-26T08:32:59.496Z,7.28
2019-06-26T08:35:29.139Z,7.78
2019-06-26T08:38:09.849Z,7.45
2019-06-26T08:40:30.052Z,8.60
2019-06-26T08:42:59.686Z,8.38
2019-06-26T08:45:29.359Z,7.78
2019-06-26T08:48:13.379Z,7.70
2019-06-26T08:50:30.324Z,7.50
2019-06-26T08:53:00.098Z,6.83
2019-06-26T08:55:29.688Z,7.25
2019-06-26T08:57:59.315Z,7.75
2019-06-26T09:00:28.970Z,8.13
2019-06-26T09:02:58.685Z,8.90
2019-06-26T09:05:28.324Z,8.90
2019-06-26T09:07:58.172Z,8.80
2019-06-26T09:10:27.773Z,9.73
2019-06-26T09:12:57.401Z,9.15
2019-06-26T09:15:26.999Z,8.63
2019-06-26T09:17:56.627Z,9.40
2019-06-26T09:20:40.610Z,8.88
2019-06-26T09:23:10.440Z,9.23
2019-06-26T09:25:40.038Z,9.28
2019-06-26T09:28:09.766Z,8.90
2019-06-26T09:30:39.368Z,8.15
2019-06-26T09:33:09.019Z,8.60
2019-06-26T09:35:38.597Z,8.93
2019-06-26T09:38:08.224Z,9.03
2019-06-26T09:40:37.824Z,8.20
2019-06-26T09:43:07.459Z,8.20
2019-06-26T09:45:37.248Z,8.85
2019-06-26T09:48:06.980Z,8.50
2019-06-26T09:50:36.583Z,9.18
2019-06-26T09:53:06.248Z,9.73
2019-06-26T09:55:36.014Z,9.30
2019-06-26T09:58:05.684Z,9.60
2019-06-26T10:00:35.623Z,8.65
2019-06-26T10:03:06.000Z,9.00
2019-06-26T10:05:35.698Z,8.43
2019-06-26T10:08:05.417Z,7.70
2019-06-26T10:10:35.000Z,8.58
2019-06-26T10:13:04.694Z,8.35
2019-06-26T10:15:34.289Z,9.50
2019-06-26T10:18:03.999Z,9.80
2019-06-26T10:20:33.627Z,9.38
2019-06-26T10:23:03.212Z,9.43
2019-06-26T10:25:32.916Z,9.28
2019-06-26T10:28:02.625Z,9.15
2019-06-26T10:30:32.202Z,9.68
2019-06-26T10:33:02.269Z,8.50
2019-06-26T10:35:31.904Z,9.03
2019-06-26T10:38:01.896Z,8.83
2019-06-26T10:40:31.505Z,9.98
2019-06-26T10:43:01.159Z,10.30
2019-06-26T10:45:30.841Z,9.10
2019-06-26T10:48:00.604Z,9.18
2019-06-26T10:50:30.196Z,8.83
2019-06-26T10:52:59.823Z,7.70
2019-06-26T10:55:29.420Z,7.75
2019-06-26T10:57:59.047Z,7.80
2019-06-26T11:00:29.082Z,8.50
2019-06-26T11:02:58.839Z,8.73
2019-06-26T11:05:28.585Z,8.60
2019-06-26T11:07:58.208Z,7.00
2019-06-26T11:10:27.974Z,7.00
2019-06-26T11:12:57.594Z,6.60
2019-06-26T11:15:27.286Z,8.20
2019-06-26T11:17:56.930Z,8.25
2019-06-26T11:20:26.736Z,8.95
2019-06-26T11:22:56.344Z,9.40
2019-06-26T11:25:26.109Z,8.90
2019-06-26T11:27:55.705Z,9.28
2019-06-26T11:30:25.839Z,9.43
2019-06-26T11:32:55.448Z,9.15
2019-06-26T11:35:25.066Z,9.60
2019-06-26T11:37:54.732Z,9.13
2019-06-26T11:40:24.571Z,9.18
2019-06-26T11:42:54.254Z,8.98
2019-06-26T11:45:24.010Z,9.65
2019-06-26T11:47:53.617Z,9.95
2019-06-26T11:50:23.858Z,10.00
2019-06-26T11:52:53.561Z,9.90
2019-06-26T11:55:23.368Z,9.93
2019-06-26T11:57:53.089Z,10.10
2019-06-26T12:00:24.706Z,9.50
2019-06-26T12:02:54.478Z,10.85
2019-06-26T12:05:24.505Z,10.10
2019-06-26T12:07:54.204Z,10.75
2019-06-26T12:10:24.177Z,10.23
2019-06-26T12:12:53.771Z,9.33
2019-06-26T12:15:24.412Z,10.10
2019-06-26T12:17:54.042Z,9.65
2019-06-26T12:20:23.803Z,9.88
2019-06-26T12:22:53.943Z,10.85
2019-06-26T12:25:23.671Z,9.85
2019-06-26T12:27:53.269Z,9.78
2019-06-26T12:30:23.741Z,9.75
2019-06-26T12:33:03.019Z,10.05
2019-06-26T12:35:24.743Z,9.78
2019-06-26T12:37:54.434Z,9.93
2019-06-26T12:40:24.095Z,10.40
2019-06-26T12:42:55.685Z,9.83
2019-06-26T12:45:25.217Z,9.90
2019-06-26T12:47:54.852Z,9.68
2019-06-26T12:50:35.308Z,9.88
2019-06-26T12:52:56.412Z,10.08
2019-06-26T12:55:26.034Z,9.68
2019-06-26T12:58:11.840Z,10.18
2019-06-26T13:00:27.228Z,9.68
2019-06-26T13:02:56.831Z,10.05
2019-06-26T13:05:26.462Z,9.85
2019-06-26T13:07:56.060Z,10.23
2019-06-26T13:10:25.696Z,9.73
2019-06-26T13:12:55.451Z,9.70
2019-06-26T13:15:25.117Z,9.75
2019-06-26T13:17:54.745Z,10.93
2019-06-26T13:20:24.415Z,10.15
2019-06-26T13:22:54.028Z,9.95
2019-06-26T13:25:23.700Z,10.85
2019-06-26T13:27:53.410Z,10.05
2019-06-26T13:30:30.314Z,10.30
2019-06-26T13:32:59.976Z,9.93
2019-06-26T13:35:29.643Z,9.78
2019-06-26T13:37:59.271Z,9.60
2019-06-26T13:40:28.941Z,9.30
2019-06-26T13:42:58.570Z,9.85
2019-06-26T13:45:28.242Z,10.00
2019-06-26T13:47:57.947Z,9.38
2019-06-26T13:50:27.680Z,10.72
2019-06-26T13:52:57.302Z,9.55
2019-06-26T13:55:26.897Z,9.55
2019-06-26T13:57:56.500Z,10.63
2019-06-26T14:00:26.293Z,9.93
2019-06-26T14:02:55.922Z,10.28
2019-06-26T14:05:29.259Z,10.65
2019-06-26T14:07:56.846Z,10.13
2019-06-26T14:10:26.473Z,9.88
2019-06-26T14:12:56.064Z,9.53
2019-06-26T14:15:26.107Z,9.70
2019-06-26T14:17:55.733Z,10.13
2019-06-26T14:20:25.456Z,9.80
2019-06-26T14:22:55.065Z,10.23
2019-06-26T14:25:24.658Z,10.03
2019-06-26T14:27:54.318Z,10.75
2019-06-26T14:30:27.681Z,9.65
2019-06-26T14:32:55.304Z,10.13
2019-06-26T14:35:24.903Z,10.03
2019-06-26T14:37:54.529Z,9.98
2019-06-26T14:40:24.190Z,11.10
2019-06-26T14:42:53.753Z,10.70
2019-06-26T14:45:23.458Z,10.60
2019-06-26T14:47:53.048Z,10.63
2019-06-26T14:50:23.288Z,10.18
2019-06-26T14:52:52.921Z,10.82
2019-06-26T14:55:22.685Z,10.48
2019-06-26T14:57:52.301Z,10.82
2019-06-26T15:00:22.214Z,10.43
2019-06-26T15:02:51.813Z,10.53
2019-06-26T15:05:21.511Z,9.83
2019-06-26T15:07:51.146Z,10.48
2019-06-26T15:10:21.388Z,10.20
2019-06-26T15:12:50.989Z,10.55
2019-06-26T15:15:20.759Z,10.35
2019-06-26T15:17:50.455Z,11.43
2019-06-26T15:20:20.402Z,10.63
2019-06-26T15:22:50.093Z,10.70
2019-06-26T15:25:20.220Z,10.48
2019-06-26T15:27:49.959Z,10.80
2019-06-26T15:30:21.302Z,10.90
2019-06-26T15:32:51.009Z,10.20
2019-06-26T15:35:20.609Z,10.50
2019-06-26T15:37:50.235Z,11.10
2019-06-26T15:40:20.171Z,10.63
2019-06-26T15:42:49.839Z,10.40
2019-06-26T15:45:20.784Z,11.22
2019-06-26T15:47:50.674Z,10.63
2019-06-26T15:50:20.808Z,10.58
2019-06-26T15:52:50.441Z,11.10
2019-06-26T15:55:20.070Z,10.38
2019-06-26T15:57:49.760Z,10.38
2019-06-26T16:00:19.772Z,10.98
2019-06-26T16:02:49.401Z,10.90
2019-06-26T16:05:19.069Z,10.18
2019-06-26T16:07:48.700Z,10.80
2019-06-26T16:10:19.116Z,11.33
2019-06-26T16:12:48.717Z,10.88
2019-06-26T16:15:18.766Z,10.65
2019-06-26T16:17:55.688Z,11.43
2019-06-26T16:20:25.288Z,11.05
2019-06-26T16:22:54.919Z,10.93
2019-06-26T16:25:24.518Z,11.25
2019-06-26T16:28:04.614Z,10.68
2019-06-26T16:30:26.080Z,10.70
2019-06-26T16:32:56.953Z,11.12
2019-06-26T16:35:26.776Z,10.68
2019-06-26T16:37:56.375Z,10.63
2019-06-26T16:40:26.008Z,10.25
2019-06-26T16:42:55.669Z,10.85
2019-06-26T16:45:25.391Z,11.00
2019-06-26T16:47:54.976Z,10.98
2019-06-26T16:50:24.611Z,10.75
2019-06-26T16:52:54.209Z,10.48
2019-06-26T16:55:23.831Z,10.90
2019-06-26T16:57:53.469Z,11.48
2019-06-26T17:00:23.229Z,10.10
2019-06-26T17:02:52.848Z,10.78
2019-06-26T17:05:22.514Z,10.65
2019-06-26T17:07:52.184Z,10.70
2019-06-26T17:10:22.135Z,11.33
2019-06-26T17:12:51.824Z,10.38
2019-06-26T17:15:21.713Z,10.80
2019-06-26T17:17:51.297Z,10.43
2019-06-26T17:20:21.128Z,10.98
2019-06-26T17:23:04.627Z,10.30
2019-06-26T17:25:22.088Z,10.80
2019-06-26T17:27:51.708Z,10.65
2019-06-26T17:30:21.549Z,10.95
2019-06-26T17:32:51.511Z,10.45
2019-06-26T17:35:21.185Z,10.40
2019-06-26T17:37:50.821Z,11.40
2019-06-26T17:40:21.075Z,10.68
2019-06-26T17:42:50.666Z,10.78
2019-06-26T17:45:20.506Z,10.28
2019-06-26T17:47:50.111Z,10.20
2019-06-26T17:50:20.045Z,10.63
2019-06-26T17:52:49.930Z,11.10
2019-06-26T17:55:19.777Z,10.53
2019-06-26T17:57:49.380Z,10.38
2019-06-26T18:00:23.590Z,11.00
2019-06-26T18:02:53.207Z,10.82
2019-06-26T18:05:22.891Z,10.68
2019-06-26T18:07:52.531Z,11.20
2019-06-26T18:10:22.157Z,11.20
2019-06-26T18:12:51.786Z,11.10
2019-06-26T18:15:21.390Z,10.68
2019-06-26T18:17:51.023Z,10.90
2019-06-26T18:20:20.785Z,11.30
2019-06-26T18:23:05.961Z,10.68
2019-06-26T18:25:21.813Z,11.50
2019-06-26T18:27:51.482Z,13.32
2019-06-26T18:30:22.810Z,12.35
2019-06-26T18:32:52.633Z,11.38
2019-06-26T18:35:23.935Z,12.07
2019-06-26T18:37:53.613Z,11.60
2019-06-26T18:40:23.411Z,11.30
2019-06-26T18:42:53.007Z,11.10
2019-06-26T18:45:22.778Z,11.70
2019-06-26T18:47:52.372Z,11.75
2019-06-26T18:50:22.000Z,11.65
2019-06-26T18:52:51.670Z,12.33
2019-06-26T18:55:21.302Z,11.57
2019-06-26T18:57:51.000Z,12.78
2019-06-26T19:00:21.430Z,12.40
2019-06-26T19:02:51.041Z,11.70
2019-06-26T19:05:20.683Z,11.93
2019-06-26T19:07:50.280Z,13.03
2019-06-26T19:10:20.215Z,12.30
2019-06-26T19:12:49.820Z,12.82
2019-06-26T19:15:19.897Z,12.68
2019-06-26T19:17:49.489Z,12.88
2019-06-26T19:20:20.121Z,12.78
2019-06-26T19:22:49.786Z,13.20
2019-06-26T19:25:19.550Z,13.53
2019-06-26T19:27:49.154Z,13.83
2019-06-26T19:30:19.293Z,13.58
2019-06-26T19:32:48.892Z,13.88
2019-06-26T19:35:19.736Z,13.10
2019-06-26T19:37:49.975Z,14.13
2019-06-26T19:40:23.632Z,13.58
2019-06-26T19:42:51.292Z,14.30
2019-06-26T19:45:21.620Z,13.45
2019-06-26T19:47:51.226Z,14.58
2019-06-26T19:50:23.410Z,14.38
2019-06-26T19:52:52.353Z,14.28
2019-06-26T19:55:21.951Z,14.20
2019-06-26T19:57:51.575Z,13.43
2019-06-26T20:00:22.740Z,14.38
2019-06-26T20:02:52.337Z,15.00
2019-06-26T20:05:21.924Z,15.23
2019-06-26T20:07:51.555Z,15.28
2019-06-26T20:10:22.055Z,15.03
2019-06-26T20:12:51.781Z,15.28
2019-06-26T20:15:21.382Z,15.23
2019-06-26T20:17:51.008Z,14.60
2019-06-26T20:20:20.792Z,16.17
2019-06-26T20:22:50.457Z,14.93
2019-06-26T20:25:20.636Z,15.45
2019-06-26T20:27:56.690Z,15.80
2019-06-26T20:30:26.424Z,15.03
2019-06-26T20:32:56.057Z,15.72
2019-06-26T20:35:25.729Z,15.38
2019-06-26T20:37:55.371Z,16.17
2019-06-26T20:40:24.953Z,15.68
2019-06-26T20:42:54.651Z,16.48
2019-06-26T20:45:24.405Z,15.95
2019-06-26T20:47:54.041Z,16.50
2019-06-26T20:50:23.643Z,17.07
2019-06-26T20:52:53.272Z,16.60
2019-06-26T20:55:22.896Z,16.15
2019-06-26T20:57:52.528Z,16.48
2019-06-26T21:00:22.782Z,15.98
2019-06-26T21:02:54.610Z,17.57
2019-06-26T21:05:24.206Z,17.50
2019-06-26T21:07:53.839Z,17.45
2019-06-26T21:10:23.514Z,17.48
2019-06-26T21:12:53.138Z,17.32
2019-06-26T21:15:22.815Z,17.12
2019-06-26T21:17:52.448Z,17.20
2019-06-26T21:20:22.050Z,17.42
2019-06-26T21:22:51.711Z,17.00
2019-06-26T21:25:22.924Z,16.45
2019-06-26T21:27:52.554Z,17.48
2019-06-26T21:30:22.798Z,17.00
2019-06-26T21:32:52.664Z,17.12
2019-06-26T21:35:22.292Z,16.73
2019-06-26T21:37:52.193Z,16.12
2019-06-26T21:40:21.796Z,18.12
2019-06-26T21:42:51.436Z,16.62
2019-06-26T21:45:22.087Z,16.97
2019-06-26T21:47:51.693Z,16.55
2019-06-26T21:50:21.314Z,17.23
2019-06-26T21:52:51.353Z,15.80
2019-06-26T21:55:33.896Z,17.45
2019-06-26T21:57:52.332Z,16.97
2019-06-26T22:00:23.525Z,17.35
2019-06-26T22:02:53.125Z,18.12
2019-06-26T22:05:24.340Z,16.02
2019-06-26T22:07:53.969Z,16.65
2019-06-26T22:10:23.711Z,17.48
2019-06-26T22:12:53.484Z,17.52
2019-06-26T22:15:23.187Z,16.80
2019-06-26T22:17:52.813Z,16.93
2019-06-26T22:20:22.621Z,16.93
2019-06-26T22:22:52.252Z,16.73
2019-06-26T22:25:22.091Z,17.48
2019-06-26T22:27:51.721Z,16.12
2019-06-26T22:30:21.730Z,17.32
2019-06-26T22:32:51.357Z,16.17
2019-06-26T22:35:21.027Z,16.87
2019-06-26T22:37:50.732Z,15.68
2019-06-26T22:40:20.473Z,17.07
2019-06-26T22:42:50.173Z,17.40
2019-06-26T22:45:19.914Z,17.77
2019-06-26T22:47:49.544Z,17.30
2019-06-26T22:50:19.451Z,17.10
2019-06-26T22:52:49.161Z,18.67
2019-06-26T22:55:18.913Z,17.62
2019-06-26T22:57:48.551Z,18.00
2019-06-26T23:00:20.039Z,18.77
2019-06-26T23:02:49.679Z,18.10
2019-06-26T23:05:19.318Z,18.67
2019-06-26T23:07:48.927Z,18.48
2019-06-26T23:10:19.614Z,17.32
2019-06-26T23:12:49.320Z,17.87
2019-06-26T23:15:19.170Z,17.62
2019-06-26T23:17:48.823Z,17.85
2019-06-26T23:20:18.733Z,17.37
2019-06-26T23:22:48.342Z,17.95
2019-06-26T23:25:17.977Z,18.05
2019-06-26T23:27:47.689Z,17.45
2019-06-26T23:30:20.886Z,17.73
2019-06-26T23:32:50.527Z,18.05
2019-06-26T23:35:20.159Z,18.65
2019-06-26T23:37:49.862Z,16.45
2019-06-26T23:40:19.680Z,17.00
2019-06-26T23:42:49.284Z,17.52
2019-06-26T23:45:19.323Z,17.75
2019-06-26T23:47:48.949Z,17.67
2019-06-26T23:50:19.473Z,17.65
2019-06-26T23:52:49.076Z,17.25
2019-06-26T23:55:18.905Z,16.93
2019-06-26T23:57:58.513Z,17.15
